createdAt,value
2022-11-29T00:01:25.553Z,8.10
2022-11-29T00:03:54.098Z,8.10
2022-11-29T00:06:23.920Z,8.10
2022-11-29T00:08:52.870Z,8.10
2022-11-29T00:11:36.384Z,8.10
2022-11-29T00:14:05.941Z,8.10
2022-11-29T00:16:34.279Z,8.10
2022-11-29T00:19:02.324Z,8.10
2022-11-29T00:21:30.204Z,8.10
2022-11-29T00:23:58.065Z,8.10
2022-11-29T00:26:26.226Z,8.10
2022-11-29T00:28:54.352Z,8.10
2022-11-29T00:31:26.136Z,8.10
2022-11-29T00:33:54.478Z,8.10
2022-11-29T00:36:22.391Z,8.10
2022-11-29T00:38:50.329Z,8.10
2022-11-29T00:41:18.934Z,8.10
2022-11-29T00:43:46.810Z,8.10
2022-11-29T00:46:15.044Z,8.10
2022-11-29T00:48:44.452Z,8.10
2022-11-29T00:51:12.561Z,8.10
2022-11-29T00:53:41.028Z,8.10
2022-11-29T00:56:09.487Z,8.10
2022-11-29T00:58:37.741Z,8.10
2022-11-29T01:01:06.279Z,8.10
2022-11-29T01:03:35.095Z,8.00
2022-11-29T01:06:05.675Z,8.10
2022-11-29T01:08:33.645Z,8.00
2022-11-29T01:11:08.626Z,8.10
2022-11-29T01:13:37.111Z,8.10
2022-11-29T01:16:05.798Z,8.10
2022-11-29T01:18:35.766Z,8.10
2022-11-29T01:21:07.826Z,8.10
2022-11-29T01:23:37.134Z,8.10
2022-11-29T01:26:07.439Z,8.00
2022-11-29T01:28:36.544Z,8.00
2022-11-29T01:31:08.094Z,8.00
2022-11-29T01:33:37.048Z,8.00
2022-11-29T01:36:08.244Z,8.10
2022-11-29T01:38:37.475Z,8.10
2022-11-29T01:41:07.641Z,8.10
2022-11-29T01:43:51.188Z,8.00
2022-11-29T01:46:19.310Z,8.00
2022-11-29T01:48:47.378Z,8.10
2022-11-29T01:51:16.903Z,8.10
2022-11-29T01:53:45.023Z,8.10
2022-11-29T01:56:16.688Z,8.10
2022-11-29T01:58:45.930Z,8.10
2022-11-29T02:01:14.014Z,8.10
2022-11-29T02:03:42.037Z,8.10
2022-11-29T02:06:10.206Z,8.10
2022-11-29T02:08:41.239Z,8.10
2022-11-29T02:11:37.623Z,8.10
2022-11-29T02:14:16.751Z,8.10
2022-11-29T02:16:56.535Z,8.10
2022-11-29T02:19:51.762Z,8.10
2022-11-29T02:22:25.282Z,8.10
2022-11-29T02:25:19.042Z,8.10
2022-11-29T02:28:34.992Z,8.10
2022-11-29T02:31:36.340Z,8.10
2022-11-29T02:34:38.718Z,8.10
2022-11-29T02:37:25.270Z,8.10
2022-11-29T02:40:08.006Z,8.10
2022-11-29T02:43:11.895Z,8.10
2022-11-29T02:45:59.725Z,8.10
2022-11-29T02:48:45.823Z,8.10
2022-11-29T02:51:20.925Z,8.10
2022-11-29T02:53:57.636Z,8.10
2022-11-29T02:56:30.736Z,8.10
2022-11-29T02:59:05.565Z,8.00
2022-11-29T03:01:38.306Z,8.00
2022-11-29T03:04:13.193Z,8.10
2022-11-29T03:06:48.014Z,8.10
2022-11-29T03:09:27.147Z,8.10
2022-11-29T03:12:03.774Z,8.10
2022-11-29T03:14:44.604Z,8.10
2022-11-29T03:17:26.799Z,8.10
2022-11-29T03:20:08.649Z,8.10
2022-11-29T03:22:48.006Z,8.10
2022-11-29T03:25:23.559Z,8.10
2022-11-29T03:28:04.707Z,8.10
2022-11-29T03:30:35.535Z,8.10
2022-11-29T03:33:10.296Z,8.10
2022-11-29T03:35:43.273Z,8.10
2022-11-29T03:38:22.124Z,8.10
2022-11-29T03:41:00.846Z,8.10
2022-11-29T03:43:34.459Z,8.10
2022-11-29T03:46:07.053Z,8.10
2022-11-29T03:48:41.212Z,8.10
2022-11-29T03:51:15.354Z,8.10
2022-11-29T03:53:52.122Z,8.10
2022-11-29T03:56:32.245Z,8.10
2022-11-29T03:59:14.047Z,8.10
2022-11-29T04:02:26.707Z,8.10
2022-11-29T04:05:28.243Z,8.10
2022-11-29T04:08:20.460Z,8.10
2022-11-29T04:11:06.413Z,8.10
2022-11-29T04:13:57.616Z,8.20
2022-11-29T04:16:53.987Z,8.20
2022-11-29T04:19:58.270Z,8.20
2022-11-29T04:22:49.906Z,8.10
2022-11-29T04:25:49.793Z,8.10
2022-11-29T04:28:55.066Z,8.10
2022-11-29T04:31:37.479Z,8.10
2022-11-29T04:34:22.163Z,8.10
2022-11-29T04:37:19.429Z,8.20
2022-11-29T04:40:06.295Z,8.20
2022-11-29T04:42:58.051Z,8.20
2022-11-29T04:45:48.993Z,8.20
2022-11-29T04:48:38.708Z,8.20
2022-11-29T04:51:18.063Z,8.20
2022-11-29T04:53:58.177Z,8.20
2022-11-29T04:56:34.141Z,8.20
2022-11-29T04:59:08.739Z,8.20
2022-11-29T05:01:49.429Z,8.20
2022-11-29T05:04:22.748Z,8.30
2022-11-29T05:07:00.824Z,8.30
2022-11-29T05:09:38.906Z,8.20
2022-11-29T05:12:16.934Z,8.30
2022-11-29T05:15:05.779Z,8.30
2022-11-29T05:17:43.436Z,8.30
2022-11-29T05:20:29.254Z,8.30
2022-11-29T05:23:13.920Z,8.30
2022-11-29T05:25:48.474Z,8.30
2022-11-29T05:28:22.082Z,8.30
2022-11-29T05:31:20.093Z,8.30
2022-11-29T05:34:23.038Z,8.30
2022-11-29T05:37:02.222Z,8.30
2022-11-29T05:39:50.224Z,8.30
2022-11-29T05:42:38.420Z,8.30
2022-11-29T05:45:13.690Z,8.30
2022-11-29T05:47:45.187Z,8.30
2022-11-29T05:50:22.628Z,8.30
2022-11-29T05:52:56.526Z,8.30
2022-11-29T05:55:35.750Z,8.30
2022-11-29T05:58:11.501Z,8.30
2022-11-29T06:00:48.899Z,8.30
2022-11-29T06:03:25.201Z,8.30
2022-11-29T06:06:00.709Z,8.40
2022-11-29T06:08:38.500Z,8.40
2022-11-29T06:11:15.283Z,8.40
2022-11-29T06:13:56.307Z,8.40
2022-11-29T06:16:46.891Z,8.40
2022-11-29T06:19:34.831Z,8.40
2022-11-29T06:22:16.953Z,8.40
2022-11-29T06:25:06.565Z,8.40
2022-11-29T06:27:48.057Z,8.40
2022-11-29T06:30:19.667Z,8.40
2022-11-29T06:32:54.359Z,8.40
2022-11-29T06:35:36.481Z,8.40
2022-11-29T06:38:11.744Z,8.40
2022-11-29T06:40:40.200Z,8.40
2022-11-29T06:43:08.680Z,8.40
2022-11-29T06:45:37.016Z,8.40
2022-11-29T06:48:08.484Z,8.40
2022-11-29T06:50:44.800Z,8.40
2022-11-29T06:53:20.576Z,8.40
2022-11-29T06:55:55.985Z,8.40
2022-11-29T06:58:38.699Z,8.40
2022-11-29T07:01:18.513Z,8.40
2022-11-29T07:04:08.479Z,8.40
2022-11-29T07:06:37.062Z,8.40
2022-11-29T07:09:17.904Z,8.40
2022-11-29T07:11:47.153Z,8.40
2022-11-29T07:14:15.704Z,8.40
2022-11-29T07:16:57.041Z,8.40
2022-11-29T07:19:34.897Z,8.40
2022-11-29T07:22:11.861Z,8.40
2022-11-29T07:24:55.134Z,8.40
2022-11-29T07:27:31.456Z,8.50
2022-11-29T07:30:11.091Z,8.50
2022-11-29T07:32:50.913Z,8.50
2022-11-29T07:35:27.526Z,8.50
2022-11-29T07:38:05.665Z,8.50
2022-11-29T07:40:43.929Z,8.50
2022-11-29T07:43:24.926Z,8.50
2022-11-29T07:45:53.881Z,8.50
2022-11-29T07:48:21.768Z,8.50
2022-11-29T07:50:49.891Z,8.60
2022-11-29T07:53:18.848Z,8.50
2022-11-29T07:55:48.930Z,8.60
2022-11-29T07:58:18.049Z,8.60
2022-11-29T08:00:46.618Z,8.60
2022-11-29T08:03:14.595Z,8.60
2022-11-29T08:05:47.074Z,8.60
2022-11-29T08:08:15.545Z,8.60
2022-11-29T08:10:43.630Z,8.60
2022-11-29T08:13:13.191Z,8.60
2022-11-29T08:15:46.269Z,8.60
2022-11-29T08:18:14.673Z,8.60
2022-11-29T08:20:42.845Z,8.70
2022-11-29T08:23:13.410Z,8.70
2022-11-29T08:25:41.792Z,8.70
2022-11-29T08:28:10.051Z,8.70
2022-11-29T08:30:39.535Z,8.70
2022-11-29T08:33:07.474Z,8.70
2022-11-29T08:35:37.068Z,8.70
2022-11-29T08:38:05.306Z,8.70
2022-11-29T08:40:33.290Z,8.80
2022-11-29T08:43:01.237Z,8.80
2022-11-29T08:45:29.295Z,8.80
2022-11-29T08:47:58.759Z,8.90
2022-11-29T08:50:26.686Z,8.90
2022-11-29T08:53:11.989Z,8.90
2022-11-29T08:55:43.063Z,8.90
2022-11-29T08:58:13.025Z,9.00
2022-11-29T09:00:42.404Z,9.00
2022-11-29T09:03:31.271Z,8.90
2022-11-29T09:05:59.675Z,9.00
2022-11-29T09:08:27.674Z,9.00
2022-11-29T09:10:55.618Z,9.00
2022-11-29T09:13:23.530Z,9.00
2022-11-29T09:15:52.682Z,9.00
2022-11-29T09:18:23.035Z,9.00
2022-11-29T09:20:50.935Z,9.00
2022-11-29T09:23:18.883Z,9.00
2022-11-29T09:25:50.058Z,9.00
2022-11-29T09:28:17.997Z,9.00
2022-11-29T09:30:45.937Z,9.00
2022-11-29T09:33:13.858Z,9.00
2022-11-29T09:35:43.467Z,9.00
2022-11-29T09:38:12.257Z,9.00
2022-11-29T09:40:43.436Z,9.00
2022-11-29T09:43:22.429Z,9.10
2022-11-29T09:45:58.003Z,9.10
2022-11-29T09:48:59.247Z,9.10
2022-11-29T09:51:41.165Z,9.20
2022-11-29T09:54:26.238Z,9.10
2022-11-29T09:56:55.539Z,9.20
2022-11-29T09:59:29.071Z,9.20
2022-11-29T10:02:02.422Z,9.30
2022-11-29T10:04:36.590Z,9.20
2022-11-29T10:07:13.426Z,9.30
2022-11-29T10:09:47.102Z,9.30
2022-11-29T10:12:20.900Z,9.30
2022-11-29T10:14:56.185Z,9.30
2022-11-29T10:17:33.330Z,9.40
2022-11-29T10:20:07.104Z,9.40
2022-11-29T10:22:46.036Z,9.40
2022-11-29T10:25:22.699Z,9.40
2022-11-29T10:27:50.953Z,9.40
2022-11-29T10:30:19.687Z,9.40
2022-11-29T10:32:51.934Z,9.40
2022-11-29T10:35:21.847Z,9.40
2022-11-29T10:38:28.706Z,9.40
2022-11-29T10:40:45.291Z,9.40
2022-11-29T10:43:13.257Z,9.40
2022-11-29T10:45:45.975Z,9.40
2022-11-29T10:48:17.392Z,9.40
2022-11-29T10:50:48.696Z,9.40
2022-11-29T10:53:20.075Z,9.40
2022-11-29T10:55:51.690Z,9.40
2022-11-29T10:58:27.977Z,9.40
2022-11-29T11:00:59.193Z,9.40
2022-11-29T11:03:34.748Z,9.40
2022-11-29T11:06:10.489Z,9.40
2022-11-29T11:08:43.407Z,9.40
2022-11-29T11:11:13.251Z,9.40
2022-11-29T11:13:42.504Z,9.40
2022-11-29T11:16:20.982Z,9.30
2022-11-29T11:18:49.479Z,9.40
2022-11-29T11:21:21.155Z,9.40
2022-11-29T11:23:57.649Z,9.40
2022-11-29T11:26:26.411Z,9.40
2022-11-29T11:29:00.003Z,9.40
2022-11-29T11:31:34.776Z,9.50
2022-11-29T11:34:34.198Z,9.50
2022-11-29T11:37:30.196Z,9.40
2022-11-29T11:40:01.155Z,9.50
2022-11-29T11:42:40.399Z,9.50
2022-11-29T11:45:27.178Z,9.50
2022-11-29T11:47:59.795Z,9.50
2022-11-29T11:50:30.714Z,9.50
2022-11-29T11:53:01.761Z,9.50
2022-11-29T11:55:35.580Z,9.50
2022-11-29T11:58:10.696Z,9.50
2022-11-29T12:01:03.429Z,9.50
2022-11-29T12:03:44.917Z,9.40
2022-11-29T12:06:29.600Z,9.40
2022-11-29T12:09:03.300Z,9.50
2022-11-29T12:11:39.141Z,9.40
2022-11-29T12:14:08.684Z,9.50
2022-11-29T12:16:39.557Z,9.40
2022-11-29T12:19:16.090Z,9.40
2022-11-29T12:21:47.646Z,9.40
2022-11-29T12:24:22.587Z,9.40
2022-11-29T12:26:58.321Z,9.50
2022-11-29T12:29:31.819Z,9.40
2022-11-29T12:32:13.424Z,9.50
2022-11-29T12:34:52.276Z,9.50
2022-11-29T12:37:26.679Z,9.50
2022-11-29T12:40:07.096Z,9.50
2022-11-29T12:42:47.396Z,9.50
2022-11-29T12:45:31.047Z,9.50
2022-11-29T12:48:10.157Z,9.50
2022-11-29T12:50:52.063Z,9.50
2022-11-29T12:53:37.510Z,9.50
2022-11-29T12:56:15.701Z,9.40
2022-11-29T12:58:57.583Z,9.40
2022-11-29T13:01:34.572Z,9.40
2022-11-29T13:04:13.091Z,9.40
2022-11-29T13:06:46.066Z,9.40
2022-11-29T13:09:38.761Z,9.40
2022-11-29T13:12:10.896Z,9.40
2022-11-29T13:14:49.554Z,9.40
2022-11-29T13:17:28.837Z,9.40
2022-11-29T13:19:59.421Z,9.40
2022-11-29T13:22:36.986Z,9.40
2022-11-29T13:25:13.469Z,9.40
2022-11-29T13:27:45.409Z,9.40
2022-11-29T13:30:17.856Z,9.40
2022-11-29T13:32:54.687Z,9.40
2022-11-29T13:35:30.195Z,9.40
2022-11-29T13:38:04.440Z,9.40
2022-11-29T13:40:38.799Z,9.40
2022-11-29T13:43:19.569Z,9.40
2022-11-29T13:45:58.465Z,9.40
2022-11-29T13:48:37.058Z,9.40
2022-11-29T13:51:27.818Z,9.40
2022-11-29T13:53:57.499Z,9.40
2022-11-29T13:56:36.036Z,9.40
2022-11-29T13:59:09.245Z,9.40
2022-11-29T14:01:51.120Z,9.40
2022-11-29T14:04:41.556Z,9.40
2022-11-29T14:07:13.161Z,9.40
2022-11-29T14:09:56.793Z,9.40
2022-11-29T14:12:44.273Z,9.40
2022-11-29T14:15:21.837Z,9.40
2022-11-29T14:17:54.718Z,9.40
2022-11-29T14:20:57.283Z,9.40
2022-11-29T14:23:37.656Z,9.40
2022-11-29T14:26:28.742Z,9.30
2022-11-29T14:28:57.736Z,9.30
2022-11-29T14:31:49.535Z,9.30
2022-11-29T14:34:36.110Z,9.30
2022-11-29T14:37:15.555Z,9.30
2022-11-29T14:39:46.834Z,9.30
2022-11-29T14:42:18.877Z,9.30
2022-11-29T14:44:52.139Z,9.30
2022-11-29T14:47:26.289Z,9.30
2022-11-29T14:49:57.628Z,9.30
2022-11-29T14:52:30.318Z,9.30
2022-11-29T14:55:04.572Z,9.30
2022-11-29T14:58:06.254Z,9.20
2022-11-29T15:00:44.601Z,9.20
2022-11-29T15:03:14.852Z,9.20
2022-11-29T15:05:45.849Z,9.20
2022-11-29T15:08:18.849Z,9.20
2022-11-29T15:10:50.860Z,9.20
2022-11-29T15:13:26.998Z,9.20
2022-11-29T15:16:18.668Z,9.10
2022-11-29T15:19:07.309Z,9.20
2022-11-29T15:21:46.643Z,9.20
2022-11-29T15:24:16.591Z,9.10
2022-11-29T15:26:56.883Z,9.20
2022-11-29T15:29:26.044Z,9.20
2022-11-29T15:31:55.613Z,9.20
2022-11-29T15:34:31.547Z,9.10
2022-11-29T15:37:01.564Z,9.10
2022-11-29T15:39:32.141Z,9.10
2022-11-29T15:42:04.482Z,9.10
2022-11-29T15:44:38.349Z,9.10
2022-11-29T15:47:16.797Z,9.10
2022-11-29T15:49:44.788Z,9.10
2022-11-29T15:52:20.729Z,9.10
2022-11-29T15:54:52.216Z,9.00
2022-11-29T15:57:26.277Z,9.00
2022-11-29T15:59:57.417Z,9.00
2022-11-29T16:02:28.724Z,9.00
2022-11-29T16:05:00.772Z,9.00
2022-11-29T16:07:32.352Z,9.00
2022-11-29T16:10:05.530Z,9.00
2022-11-29T16:12:33.685Z,9.00
2022-11-29T16:15:02.541Z,9.00
2022-11-29T16:17:32.322Z,9.00
2022-11-29T16:20:24.316Z,9.00
2022-11-29T16:23:13.242Z,9.00
2022-11-29T16:25:54.944Z,9.00
2022-11-29T16:28:23.054Z,9.00
2022-11-29T16:30:50.960Z,9.00
2022-11-29T16:33:24.082Z,9.00
2022-11-29T16:35:52.954Z,9.00
2022-11-29T16:38:24.660Z,9.00
2022-11-29T16:41:05.541Z,9.00
2022-11-29T16:43:55.201Z,9.00
2022-11-29T16:46:40.987Z,9.00
2022-11-29T16:49:37.009Z,9.00
2022-11-29T16:52:23.625Z,9.00
2022-11-29T16:54:53.082Z,9.00
2022-11-29T16:57:21.428Z,9.00
2022-11-29T16:59:49.661Z,9.00
2022-11-29T17:02:18.081Z,8.90
2022-11-29T17:04:46.340Z,8.90
2022-11-29T17:07:18.858Z,8.90
2022-11-29T17:09:46.777Z,8.90
2022-11-29T17:12:16.312Z,8.90
2022-11-29T17:14:44.445Z,8.90
2022-11-29T17:17:15.494Z,8.90
2022-11-29T17:19:43.335Z,8.90
2022-11-29T17:22:11.957Z,8.90
2022-11-29T17:24:44.766Z,8.90
2022-11-29T17:27:17.070Z,8.90
2022-11-29T17:29:46.770Z,8.90
2022-11-29T17:32:14.671Z,8.90
2022-11-29T17:34:42.618Z,8.90
2022-11-29T17:37:10.704Z,8.80
2022-11-29T17:39:38.868Z,8.90
2022-11-29T17:42:06.780Z,8.80
2022-11-29T17:44:36.347Z,8.80
2022-11-29T17:47:04.193Z,8.80
2022-11-29T17:49:32.104Z,8.80
2022-11-29T17:52:00.035Z,8.80
2022-11-29T17:54:27.979Z,8.80
2022-11-29T17:56:56.435Z,8.80
2022-11-29T17:59:24.285Z,8.80
2022-11-29T18:01:53.808Z,8.80
2022-11-29T18:04:22.319Z,8.80
2022-11-29T18:06:50.653Z,8.80
2022-11-29T18:09:20.036Z,8.80
2022-11-29T18:11:50.338Z,8.80
2022-11-29T18:14:20.735Z,8.80
2022-11-29T18:16:48.827Z,8.80
2022-11-29T18:19:20.000Z,8.80
2022-11-29T18:21:48.944Z,8.80
2022-11-29T18:24:18.353Z,8.80
2022-11-29T18:26:46.844Z,8.70
2022-11-29T18:29:14.848Z,8.70
2022-11-29T18:31:44.538Z,8.70
2022-11-29T18:34:14.245Z,8.70
2022-11-29T18:36:45.596Z,8.70
2022-11-29T18:39:15.044Z,8.70
2022-11-29T18:41:44.349Z,8.70
2022-11-29T18:44:14.682Z,8.70
2022-11-29T18:46:44.603Z,8.70
2022-11-29T18:49:14.463Z,8.70
2022-11-29T18:51:45.814Z,8.70
2022-11-29T18:54:14.910Z,8.70
2022-11-29T18:56:44.281Z,8.70
2022-11-29T18:59:14.732Z,8.70
2022-11-29T19:01:43.941Z,8.70
2022-11-29T19:04:14.664Z,8.70
2022-11-29T19:06:45.838Z,8.70
2022-11-29T19:09:16.243Z,8.70
2022-11-29T19:11:44.271Z,8.70
2022-11-29T19:14:13.328Z,8.70
2022-11-29T19:16:44.430Z,8.60
2022-11-29T19:19:12.805Z,8.70
2022-11-29T19:21:41.778Z,8.70
2022-11-29T19:24:15.115Z,8.70
2022-11-29T19:26:45.396Z,8.70
2022-11-29T19:29:14.407Z,8.70
2022-11-29T19:31:42.559Z,8.70
2022-11-29T19:34:10.865Z,8.60
2022-11-29T19:36:42.574Z,8.60
2022-11-29T19:39:13.886Z,8.60
2022-11-29T19:41:43.569Z,8.60
2022-11-29T19:44:12.344Z,8.60
2022-11-29T19:46:42.187Z,8.60
2022-11-29T19:49:10.746Z,8.60
2022-11-29T19:51:39.114Z,8.60
2022-11-29T19:54:08.876Z,8.60
2022-11-29T19:56:39.257Z,8.60
2022-11-29T19:59:08.188Z,8.50
2022-11-29T20:01:43.835Z,8.50
2022-11-29T20:04:13.467Z,8.60
2022-11-29T20:06:42.070Z,8.60
2022-11-29T20:09:10.562Z,8.50
2022-11-29T20:11:39.888Z,8.60
2022-11-29T20:14:08.836Z,8.60
2022-11-29T20:16:39.255Z,8.60
2022-11-29T20:19:10.769Z,8.60
2022-11-29T20:21:42.937Z,8.60
2022-11-29T20:24:11.479Z,8.60
2022-11-29T20:26:42.211Z,8.60
2022-11-29T20:29:10.970Z,8.70
2022-11-29T20:31:46.017Z,8.60
2022-11-29T20:34:17.478Z,8.70
2022-11-29T20:37:17.215Z,8.70
2022-11-29T20:39:49.922Z,8.70
2022-11-29T20:42:47.321Z,8.70
2022-11-29T20:45:16.670Z,8.70
2022-11-29T20:47:51.081Z,8.70
2022-11-29T20:50:23.154Z,8.60
2022-11-29T20:53:00.414Z,8.60
2022-11-29T20:55:28.337Z,8.60
2022-11-29T20:57:57.596Z,8.60
2022-11-29T21:00:25.755Z,8.60
2022-11-29T21:02:53.648Z,8.50
2022-11-29T21:05:21.540Z,8.60
2022-11-29T21:07:49.556Z,8.60
2022-11-29T21:10:17.720Z,8.60
2022-11-29T21:12:46.544Z,8.60
2022-11-29T21:15:17.585Z,8.60
2022-11-29T21:17:46.395Z,8.60
2022-11-29T21:20:19.303Z,8.60
2022-11-29T21:22:53.922Z,8.50
2022-11-29T21:25:31.253Z,8.60
2022-11-29T21:28:00.257Z,8.50
2022-11-29T21:30:29.932Z,8.50
2022-11-29T21:32:58.435Z,8.50
2022-11-29T21:35:26.398Z,8.50
2022-11-29T21:38:00.101Z,8.50
2022-11-29T21:40:28.524Z,8.50
2022-11-29T21:42:56.611Z,8.50
2022-11-29T21:45:24.733Z,8.50
2022-11-29T21:47:54.002Z,8.50
2022-11-29T21:50:21.995Z,8.50
2022-11-29T21:52:52.418Z,8.50
2022-11-29T21:55:20.312Z,8.50
2022-11-29T21:57:48.248Z,8.50
2022-11-29T22:00:16.987Z,8.50
2022-11-29T22:02:44.934Z,8.50
2022-11-29T22:05:14.396Z,8.50
2022-11-29T22:07:42.359Z,8.40
2022-11-29T22:10:13.460Z,8.50
2022-11-29T22:12:51.257Z,8.50
2022-11-29T22:15:24.640Z,8.50
2022-11-29T22:17:53.220Z,8.50
2022-11-29T22:20:22.602Z,8.50
2022-11-29T22:22:52.569Z,8.50
2022-11-29T22:25:23.606Z,8.50
2022-11-29T22:27:51.658Z,8.50
2022-11-29T22:30:19.994Z,8.50
2022-11-29T22:32:47.907Z,8.50
2022-11-29T22:35:15.955Z,8.50
2022-11-29T22:37:45.646Z,8.50
2022-11-29T22:40:14.119Z,8.50
2022-11-29T22:42:43.221Z,8.50
2022-11-29T22:45:12.132Z,8.40
2022-11-29T22:47:39.970Z,8.50
2022-11-29T22:50:08.722Z,8.40
2022-11-29T22:52:36.935Z,8.40
2022-11-29T22:55:07.183Z,8.50
2022-11-29T22:57:36.399Z,8.50
2022-11-29T23:00:05.376Z,8.50
2022-11-29T23:02:33.274Z,8.40
2022-11-29T23:05:01.207Z,8.40
2022-11-29T23:07:29.145Z,8.40
2022-11-29T23:09:57.382Z,8.40
2022-11-29T23:12:26.605Z,8.40
2022-11-29T23:14:56.639Z,8.40
2022-11-29T23:17:24.954Z,8.30
2022-11-29T23:19:52.831Z,8.30
2022-11-29T23:22:20.719Z,8.30
2022-11-29T23:24:48.916Z,8.30
2022-11-29T23:27:16.893Z,8.30
2022-11-29T23:29:46.167Z,8.30
2022-11-29T23:32:15.119Z,8.30
2022-11-29T23:34:43.138Z,8.30
2022-11-29T23:37:11.080Z,8.30
2022-11-29T23:39:38.974Z,8.30
2022-11-29T23:42:06.901Z,8.30
2022-11-29T23:44:34.804Z,8.30
2022-11-29T23:47:04.434Z,8.30
2022-11-29T23:49:35.202Z,8.30
2022-11-29T23:52:03.031Z,8.30
2022-11-29T23:54:30.893Z,8.30
2022-11-29T23:56:58.698Z,8.30
2022-11-29T23:59:26.895Z,8.30
